Time;durP1;ratioP1;P1;durP2;ratioP2;P2;SDS_P1;SDS_P2;PMS_P1;PMS_P2;Temp;Humidity;BMP_temperature;BMP_pressure;BME280_temperature;BME280_humidity;BME280_pressure;Samples;Min_cycle;Max_cycle;Signal;HPM_P1;HPM_P2
2023/07/15 00:04:54;;;;;;;;;;;;;;;21.02;56.48828;100357.6;;;;-69
2023/07/15 00:09:53;;;;;;;;;;;;;;;21.03;57.15137;100355.7;;;;-69
2023/07/15 00:14:53;;;;;;;;;;;;;;;21.03;57.21973;100350.8;;;;-69
2023/07/15 00:19:53;;;;;;;;;;;;;;;21.03;56.67188;100349.2;;;;-68
2023/07/15 00:21:53;;;;;;;0.3;0.2;;;;;;;;;;;;;-69
2023/07/15 00:24:53;;;;;;;;;;;;;;;21.02;57.15039;100363.6;;;;-71
2023/07/15 00:29:53;;;;;;;;;;;;;;;21.03;57.09473;100370.4;;;;-68
2023/07/15 00:34:55;;;;;;;;;;;;;;;21.03;57.28906;100371.9;;;;-68
2023/07/15 00:39:54;;;;;;;;;;;;;;;21.02;57.15039;100359;;;;-71
2023/07/15 00:44:49;;;;;;;;;;;;;;;21.01;57.45703;100358.3;;;;-68
2023/07/15 00:49:57;;;;;;;;;;;;;;;21.01;56.99902;100360.8;;;;-68
2023/07/15 00:51:58;;;;;;;0.3;0.1;;;;;;;;;;;;;-69
2023/07/15 00:54:54;;;;;;;;;;;;;;;21.01;56.9668;100368.9;;;;-68
2023/07/15 00:59:58;;;;;;;;;;;;;;;21.01;56.45215;100372;;;;-70
2023/07/15 01:04:53;;;;;;;;;;;;;;;20.99;56.38086;100365.7;;;;-68
2023/07/15 01:09:54;;;;;;;;;;;;;;;20.98;56.42578;100361.1;;;;-67
2023/07/15 01:14:54;;;;;;;;;;;;;;;20.98;56.10547;100358.8;;;;-70
2023/07/15 01:19:53;;;;;;;;;;;;;;;21;56.28027;100357.4;;;;-70
2023/07/15 01:22:00;;;;;;;0.2;0;;;;;;;;;;;;;-68
2023/07/15 01:24:53;;;;;;;;;;;;;;;21.03;55.96484;100365.7;;;;-69
2023/07/15 01:29:53;;;;;;;;;;;;;;;21.03;56.22656;100382;;;;-68
2023/07/15 01:34:53;;;;;;;;;;;;;;;21.04;56.02246;100397.1;;;;-71
2023/07/15 01:39:53;;;;;;;;;;;;;;;21.03;56.31934;100398.5;;;;-70
2023/07/15 01:44:54;;;;;;;;;;;;;;;21.05;56.58301;100401.8;;;;-68
2023/07/15 01:49:53;;;;;;;;;;;;;;;20.99;56.97559;100404.6;;;;-68
2023/07/15 01:52:02;;;;;;;0.2;0;;;;;;;;;;;;;-69
2023/07/15 01:54:53;;;;;;;;;;;;;;;20.94;56.87695;100403;;;;-69
2023/07/15 01:59:57;;;;;;;;;;;;;;;20.88;57.1543;100391.2;;;;-69
2023/07/15 02:04:53;;;;;;;;;;;;;;;20.74;57.38867;100392.1;;;;-67
2023/07/15 02:09:53;;;;;;;;;;;;;;;20.64;57.69434;100384.1;;;;-70
2023/07/15 02:14:53;;;;;;;;;;;;;;;20.56;57.20605;100379.7;;;;-67
2023/07/15 02:19:57;;;;;;;;;;;;;;;20.47;57.49023;100386.9;;;;-69
2023/07/15 02:22:05;;;;;;;2.3;0.9;;;;;;;;;;;;;-69
2023/07/15 02:24:53;;;;;;;;;;;;;;;20.41;57.27734;100392.9;;;;-67
2023/07/15 02:29:53;;;;;;;;;;;;;;;20.36;57.61328;100397.3;;;;-69
2023/07/15 02:34:53;;;;;;;;;;;;;;;20.29;58.02637;100396.6;;;;-68
2023/07/15 02:39:53;;;;;;;;;;;;;;;20.24;58.83789;100401.1;;;;-69
2023/07/15 02:44:53;;;;;;;;;;;;;;;20.2;58.32031;100399.3;;;;-70
2023/07/15 02:49:53;;;;;;;;;;;;;;;20.17;58.49902;100395.4;;;;-68
2023/07/15 02:52:09;;;;;;;0.2;0.1;;;;;;;;;;;;;-67
2023/07/15 02:54:55;;;;;;;;;;;;;;;20.14;58.54102;100399;;;;-68
2023/07/15 02:59:53;;;;;;;;;;;;;;;20.09;59.49121;100393.4;;;;-68
2023/07/15 03:04:53;;;;;;;;;;;;;;;20.07;60.5;100397.4;;;;-68
2023/07/15 03:09:56;;;;;;;;;;;;;;;20.08;60.88672;100403.6;;;;-69
2023/07/15 03:14:53;;;;;;;;;;;;;;;20.04;61.49707;100407.9;;;;-68
2023/07/15 03:19:53;;;;;;;;;;;;;;;20.04;62.12207;100402;;;;-68
2023/07/15 03:22:12;;;;;;;0.2;0;;;;;;;;;;;;;-68
2023/07/15 03:24:53;;;;;;;;;;;;;;;20.05;62.54297;100401.3;;;;-67
2023/07/15 03:29:54;;;;;;;;;;;;;;;20.05;62.95215;100409.6;;;;-68
2023/07/15 03:34:53;;;;;;;;;;;;;;;20.04;63.13281;100411;;;;-67
2023/07/15 03:39:54;;;;;;;;;;;;;;;20.01;63.3457;100411.4;;;;-68
2023/07/15 03:44:53;;;;;;;;;;;;;;;19.99;63.46777;100404.5;;;;-68
2023/07/15 03:49:53;;;;;;;;;;;;;;;19.95;65.00586;100405.6;;;;-68
2023/07/15 03:52:15;;;;;;;0.2;0.1;;;;;;;;;;;;;-69
2023/07/15 03:54:53;;;;;;;;;;;;;;;19.93;63.75488;100412.8;;;;-68
2023/07/15 03:59:53;;;;;;;;;;;;;;;19.95;63.4834;100396.4;;;;-69
2023/07/15 04:04:53;;;;;;;;;;;;;;;19.98;63.39746;100396.2;;;;-69
2023/07/15 04:09:53;;;;;;;;;;;;;;;20.01;63.69727;100399.4;;;;-68
2023/07/15 04:14:54;;;;;;;;;;;;;;;20.04;64.38281;100395.2;;;;-69
2023/07/15 04:19:53;;;;;;;;;;;;;;;20.11;65.6084;100392.4;;;;-69
2023/07/15 04:22:18;;;;;;;0.2;0.1;;;;;;;;;;;;;-69
2023/07/15 04:24:53;;;;;;;;;;;;;;;20.17;65.37988;100388.1;;;;-68
2023/07/15 04:29:53;;;;;;;;;;;;;;;20.24;66.46973;100397.2;;;;-69
2023/07/15 04:34:54;;;;;;;;;;;;;;;20.33;66.85645;100405.9;;;;-68
2023/07/15 04:39:53;;;;;;;;;;;;;;;20.39;68.23047;100416.7;;;;-68
2023/07/15 04:44:55;;;;;;;;;;;;;;;20.45;68.38574;100411.4;;;;-68
2023/07/15 04:49:53;;;;;;;;;;;;;;;20.52;70.95117;100413.3;;;;-68
2023/07/15 04:52:21;;;;;;;0.2;0;;;;;;;;;;;;;-69
2023/07/15 04:54:53;;;;;;;;;;;;;;;20.57;71.30078;100413.7;;;;-68
2023/07/15 04:59:55;;;;;;;;;;;;;;;20.63;69.66309;100424.3;;;;-68
2023/07/15 05:04:53;;;;;;;;;;;;;;;20.7;71.35547;100427.2;;;;-70
2023/07/15 05:09:54;;;;;;;;;;;;;;;20.74;69.66992;100430.9;;;;-68
2023/07/15 05:14:53;;;;;;;;;;;;;;;20.81;70.33691;100446.4;;;;-68
2023/07/15 05:19:53;;;;;;;;;;;;;;;20.91;68.45605;100454.8;;;;-68
2023/07/15 05:22:24;;;;;;;0.2;0.1;;;;;;;;;;;;;-69
2023/07/15 05:24:53;;;;;;;;;;;;;;;21.02;68.0293;100462.3;;;;-68
2023/07/15 05:29:53;;;;;;;;;;;;;;;21.04;66.82617;100465.2;;;;-69
2023/07/15 05:34:53;;;;;;;;;;;;;;;21.07;66.28418;100465.4;;;;-68
2023/07/15 05:39:53;;;;;;;;;;;;;;;21.08;66.36523;100463.8;;;;-69
2023/07/15 05:44:53;;;;;;;;;;;;;;;21.11;65.91699;100450.6;;;;-68
2023/07/15 05:49:53;;;;;;;;;;;;;;;21.13;65.33789;100459.5;;;;-71
2023/07/15 05:52:27;;;;;;;0.2;0;;;;;;;;;;;;;-67
2023/07/15 05:54:53;;;;;;;;;;;;;;;21.17;64.9668;100461.9;;;;-70
2023/07/15 05:59:53;;;;;;;;;;;;;;;21.17;64.73926;100462.5;;;;-67
2023/07/15 06:04:55;;;;;;;;;;;;;;;21.16;64.4873;100458.5;;;;-68
2023/07/15 06:09:53;;;;;;;;;;;;;;;21.21;64.37109;100460.8;;;;-68
2023/07/15 06:14:53;;;;;;;;;;;;;;;21.27;64.04883;100465;;;;-71
2023/07/15 06:19:53;;;;;;;;;;;;;;;21.3;63.91504;100468.4;;;;-70
2023/07/15 06:22:33;;;;;;;0.2;0;;;;;;;;;;;;;-69
2023/07/15 06:24:53;;;;;;;;;;;;;;;21.32;64.2373;100468.9;;;;-69
2023/07/15 06:29:53;;;;;;;;;;;;;;;21.35;64.09375;100483.9;;;;-70
2023/07/15 06:34:53;;;;;;;;;;;;;;;21.43;63.90137;100491.1;;;;-69
2023/07/15 06:39:53;;;;;;;;;;;;;;;21.48;63.86035;100487.3;;;;-70
2023/07/15 06:44:53;;;;;;;;;;;;;;;21.53;64.0625;100493.9;;;;-69
2023/07/15 06:49:53;;;;;;;;;;;;;;;21.64;63.9873;100486.3;;;;-69
2023/07/15 06:52:33;;;;;;;0.2;0;;;;;;;;;;;;;-68
2023/07/15 06:54:54;;;;;;;;;;;;;;;21.82;64.43457;100486.6;;;;-68
2023/07/15 06:59:53;;;;;;;;;;;;;;;21.99;63.89941;100486.7;;;;-67
2023/07/15 07:04:53;;;;;;;;;;;;;;;22.28;63.3252;100488.4;;;;-70
2023/07/15 07:09:53;;;;;;;;;;;;;;;22.77;62.76465;100487.3;;;;-68
2023/07/15 07:14:53;;;;;;;;;;;;;;;23.18;61.41504;100496.5;;;;-67
2023/07/15 07:19:54;;;;;;;;;;;;;;;23.26;60.45117;100500.1;;;;-69
2023/07/15 07:22:37;;;;;;;0.2;0.1;;;;;;;;;;;;;-68
2023/07/15 07:24:53;;;;;;;;;;;;;;;23.27;59.38672;100497.3;;;;-69
2023/07/15 07:29:58;;;;;;;;;;;;;;;23.38;58.51855;100501.1;;;;-69
2023/07/15 07:34:53;;;;;;;;;;;;;;;23.45;57.77148;100498.5;;;;-68
2023/07/15 07:39:53;;;;;;;;;;;;;;;23.6;57.125;100492.7;;;;-69
2023/07/15 07:44:55;;;;;;;;;;;;;;;23.79;56.00098;100493.3;;;;-70
2023/07/15 07:49:53;;;;;;;;;;;;;;;24.05;55.27344;100494.7;;;;-70
2023/07/15 07:52:40;;;;;;;0.2;0;;;;;;;;;;;;;-69
2023/07/15 07:54:53;;;;;;;;;;;;;;;24.4;54.14355;100500.9;;;;-68
2023/07/15 07:59:53;;;;;;;;;;;;;;;24.56;53.14941;100510.8;;;;-68
2023/07/15 08:04:53;;;;;;;;;;;;;;;24.75;52.26172;100518.5;;;;-68
2023/07/15 08:09:53;;;;;;;;;;;;;;;25.15;51.24707;100522.9;;;;-69
2023/07/15 08:14:53;;;;;;;;;;;;;;;24.97;50.8125;100519.4;;;;-70
2023/07/15 08:19:53;;;;;;;;;;;;;;;25.36;50.29004;100524.6;;;;-70
2023/07/15 08:22:44;;;;;;;0.2;0.1;;;;;;;;;;;;;-69
2023/07/15 08:24:53;;;;;;;;;;;;;;;25.74;49.0957;100525.4;;;;-69
2023/07/15 08:29:53;;;;;;;;;;;;;;;25.95;48.73633;100526.3;;;;-70
2023/07/15 08:35:04;;;;;;;;;;;;;;;25.9;48.74414;100531;;;;-71
2023/07/15 08:39:53;;;;;;;;;;;;;;;25.93;48.79199;100518.4;;;;-68
2023/07/15 08:44:53;;;;;;;;;;;;;;;25.96;48.33203;100510.8;;;;-70
2023/07/15 08:49:54;;;;;;;;;;;;;;;26.37;47.1377;100522.1;;;;-71
2023/07/15 08:52:49;;;;;;;0.2;0;;;;;;;;;;;;;-69
2023/07/15 08:54:54;;;;;;;;;;;;;;;26.55;47.06348;100522.9;;;;-71
2023/07/15 08:59:55;;;;;;;;;;;;;;;26.55;46.86621;100526.2;;;;-69
2023/07/15 09:04:53;;;;;;;;;;;;;;;26.95;46.0625;100533;;;;-69
2023/07/15 09:09:53;;;;;;;;;;;;;;;26.94;46.08398;100525.6;;;;-69
2023/07/15 09:14:55;;;;;;;;;;;;;;;27.38;45.87305;100535.3;;;;-70
2023/07/15 09:19:53;;;;;;;;;;;;;;;27.55;45.21582;100541.1;;;;-73
2023/07/15 09:22:53;;;;;;;0.2;0;;;;;;;;;;;;;-69
2023/07/15 09:24:54;;;;;;;;;;;;;;;27.27;45.81641;100545.5;;;;-67
2023/07/15 09:29:56;;;;;;;;;;;;;;;27.48;45.36133;100547;;;;-71
2023/07/15 09:34:57;;;;;;;;;;;;;;;27.49;45.55957;100549.7;;;;-70
2023/07/15 09:39:59;;;;;;;;;;;;;;;27.3;45.13379;100557.9;;;;-69
2023/07/15 09:44:53;;;;;;;;;;;;;;;27.19;44.83203;100563.2;;;;-69
2023/07/15 09:49:53;;;;;;;;;;;;;;;27.31;44.22852;100567;;;;-68
2023/07/15 09:52:58;;;;;;;0.4;0.1;;;;;;;;;;;;;-69
2023/07/15 09:54:53;;;;;;;;;;;;;;;27.52;44.60938;100564.9;;;;-68
2023/07/15 09:59:57;;;;;;;;;;;;;;;27.61;43.15234;100553.8;;;;-68
2023/07/15 10:04:55;;;;;;;;;;;;;;;27.7;43.97656;100555.8;;;;-68
2023/07/15 10:09:53;;;;;;;;;;;;;;;27.93;42.99805;100561.3;;;;-67
2023/07/15 10:14:53;;;;;;;;;;;;;;;27.91;43.24121;100559.8;;;;-67
2023/07/15 10:19:53;;;;;;;;;;;;;;;28.04;43.88184;100556.8;;;;-68
2023/07/15 10:23:02;;;;;;;0.2;0;;;;;;;;;;;;;-68
2023/07/15 10:24:59;;;;;;;;;;;;;;;28.03;43.03027;100561.5;;;;-68
2023/07/15 10:30:03;;;;;;;;;;;;;;;28.14;42.2959;100564.1;;;;-69
2023/07/15 10:34:55;;;;;;;;;;;;;;;28.01;42.94727;100561;;;;-68
2023/07/15 10:39:53;;;;;;;;;;;;;;;28.02;42.5293;100556.3;;;;-70
2023/07/15 10:44:55;;;;;;;;;;;;;;;27.93;43.17285;100554.3;;;;-72
2023/07/15 10:49:53;;;;;;;;;;;;;;;27.67;43.24121;100544.9;;;;-73
2023/07/15 10:53:19;;;;;;;0.1;0;;;;;;;;;;;;;-72
2023/07/15 10:54:57;;;;;;;;;;;;;;;27.64;43.59863;100539.8;;;;-72
2023/07/15 11:00:00;;;;;;;;;;;;;;;27.42;44.00684;100532.7;;;;-72
2023/07/15 11:04:53;;;;;;;;;;;;;;;27.34;44.55664;100533.3;;;;-72
2023/07/15 11:09:53;;;;;;;;;;;;;;;27.4;44.66699;100525.8;;;;-73
2023/07/15 11:14:53;;;;;;;;;;;;;;;27.58;44.90625;100514.6;;;;-73
2023/07/15 11:19:53;;;;;;;;;;;;;;;27.91;44.00781;100517.9;;;;-72
2023/07/15 11:23:13;;;;;;;0.2;0;;;;;;;;;;;;;-71
2023/07/15 11:24:53;;;;;;;;;;;;;;;28.08;43.97754;100518.4;;;;-69
2023/07/15 11:29:59;;;;;;;;;;;;;;;27.98;44.02637;100502.3;;;;-68
2023/07/15 11:34:53;;;;;;;;;;;;;;;28.38;42.94727;100484.7;;;;-68
2023/07/15 11:39:53;;;;;;;;;;;;;;;28.74;42.99316;100487.7;;;;-69
2023/07/15 11:44:53;;;;;;;;;;;;;;;29.13;44.02148;100476.7;;;;-69
2023/07/15 11:49:53;;;;;;;;;;;;;;;29.23;43.16797;100461.2;;;;-69
2023/07/15 11:53:29;;;;;;;0.2;0;;;;;;;;;;;;;-69
2023/07/15 11:54:53;;;;;;;;;;;;;;;29.38;42.84375;100451.2;;;;-68
2023/07/15 11:59:53;;;;;;;;;;;;;;;29.77;42.12012;100457;;;;-69
2023/07/15 12:04:53;;;;;;;;;;;;;;;29.85;43.11035;100458.2;;;;-69
2023/07/15 12:10:03;;;;;;;;;;;;;;;29.94;43.03711;100456.4;;;;-68
2023/07/15 12:14:53;;;;;;;;;;;;;;;29.48;40.48145;100446.6;;;;-69
2023/07/15 12:19:53;;;;;;;;;;;;;;;29.26;41.65332;100439.8;;;;-68
2023/07/15 12:23:22;;;;;;;0.2;0;;;;;;;;;;;;;-69
2023/07/15 12:24:53;;;;;;;;;;;;;;;29.35;41.9541;100433.1;;;;-68
2023/07/15 12:29:53;;;;;;;;;;;;;;;29.29;43.5127;100432.5;;;;-71
2023/07/15 12:34:53;;;;;;;;;;;;;;;29.65;43.04492;100426.2;;;;-67
2023/07/15 12:39:53;;;;;;;;;;;;;;;29.71;42.34961;100423.3;;;;-69
2023/07/15 12:44:53;;;;;;;;;;;;;;;29.72;42.2207;100415.5;;;;-66
2023/07/15 12:49:53;;;;;;;;;;;;;;;29.98;42.94727;100420.9;;;;-69
2023/07/15 12:53:28;;;;;;;0.2;0;;;;;;;;;;;;;-69
2023/07/15 12:54:53;;;;;;;;;;;;;;;30.22;41.95117;100416.4;;;;-68
2023/07/15 12:59:53;;;;;;;;;;;;;;;30.2;41.51758;100412.2;;;;-68
2023/07/15 13:04:53;;;;;;;;;;;;;;;30.36;41.32129;100414;;;;-69
2023/07/15 13:09:53;;;;;;;;;;;;;;;30.5;40.38477;100413.4;;;;-69
2023/07/15 13:14:53;;;;;;;;;;;;;;;30.33;40.04297;100411.7;;;;-68
2023/07/15 13:19:53;;;;;;;;;;;;;;;30.35;40.18555;100389.6;;;;-68
2023/07/15 13:23:33;;;;;;;0.2;0;;;;;;;;;;;;;-72
2023/07/15 13:24:53;;;;;;;;;;;;;;;30.53;40.50488;100393;;;;-68
2023/07/15 13:29:53;;;;;;;;;;;;;;;30.32;40.05371;100385.7;;;;-68
2023/07/15 13:34:53;;;;;;;;;;;;;;;30.25;38.73535;100386.7;;;;-68
2023/07/15 13:39:53;;;;;;;;;;;;;;;30.35;38.73242;100374;;;;-68
2023/07/15 13:44:53;;;;;;;;;;;;;;;30.51;40.07031;100361;;;;-69
2023/07/15 13:49:53;;;;;;;;;;;;;;;30.46;39.84277;100359.8;;;;-68
2023/07/15 13:53:39;;;;;;;0.1;0;;;;;;;;;;;;;-68
2023/07/15 13:54:53;;;;;;;;;;;;;;;30.44;38.97461;100341.7;;;;-68
2023/07/15 13:59:53;;;;;;;;;;;;;;;30.58;39.50293;100343.2;;;;-70
2023/07/15 14:04:53;;;;;;;;;;;;;;;30.71;37.61426;100340.3;;;;-70
2023/07/15 14:09:53;;;;;;;;;;;;;;;30.68;37.82324;100326.3;;;;-67
2023/07/15 14:14:53;;;;;;;;;;;;;;;30.78;38.76855;100327.8;;;;-67
2023/07/15 14:19:53;;;;;;;;;;;;;;;30.63;38.19434;100320.7;;;;-69
2023/07/15 14:23:44;;;;;;;0.1;0;;;;;;;;;;;;;-68
2023/07/15 14:24:53;;;;;;;;;;;;;;;30.18;38.56543;100315.4;;;;-70
2023/07/15 14:29:53;;;;;;;;;;;;;;;29.92;39.11621;100321.3;;;;-67
2023/07/15 14:34:53;;;;;;;;;;;;;;;29.75;39.44141;100336.4;;;;-68
2023/07/15 14:39:53;;;;;;;;;;;;;;;29.43;40.27832;100364.7;;;;-69
2023/07/15 14:44:53;;;;;;;;;;;;;;;28.63;43.00586;100405.3;;;;-72
2023/07/15 14:49:53;;;;;;;;;;;;;;;28.08;44.99023;100446;;;;-70
2023/07/15 14:53:50;;;;;;;0.1;0;;;;;;;;;;;;;-70
2023/07/15 14:54:53;;;;;;;;;;;;;;;27.29;47.10645;100464.3;;;;-70
2023/07/15 14:59:53;;;;;;;;;;;;;;;26.7;48.44727;100452.2;;;;-69
2023/07/15 15:04:53;;;;;;;;;;;;;;;26.52;48.64844;100452.5;;;;-69
2023/07/15 15:09:53;;;;;;;;;;;;;;;26.24;48.60547;100443.2;;;;-69
2023/07/15 15:14:54;;;;;;;;;;;;;;;26.05;48.86328;100454.6;;;;-70
2023/07/15 15:19:55;;;;;;;;;;;;;;;25.87;50.12695;100477.9;;;;-70
2023/07/15 15:23:55;;;;;;;0.2;0;;;;;;;;;;;;;-70
2023/07/15 15:24:53;;;;;;;;;;;;;;;25.33;49.81348;100488.3;;;;-72
2023/07/15 15:29:53;;;;;;;;;;;;;;;25.22;50.22852;100505.7;;;;-68
2023/07/15 15:34:53;;;;;;;;;;;;;;;24.92;50.65527;100506.8;;;;-69
2023/07/15 15:39:53;;;;;;;;;;;;;;;24.64;51.21289;100520.3;;;;-68
2023/07/15 15:44:53;;;;;;;;;;;;;;;24.34;50.74023;100531.2;;;;-69
2023/07/15 15:49:56;;;;;;;;;;;;;;;24.15;51.08887;100531.1;;;;-69
2023/07/15 15:54:01;;;;;;;0.2;0.1;;;;;;;;;;;;;-70
2023/07/15 15:54:56;;;;;;;;;;;;;;;24.06;51.50293;100533.5;;;;-74
2023/07/15 15:59:56;;;;;;;;;;;;;;;23.84;51.31543;100516.2;;;;-69
2023/07/15 16:04:54;;;;;;;;;;;;;;;23.57;52.58398;100547.6;;;;-70
2023/07/15 16:09:53;;;;;;;;;;;;;;;23.38;53.72266;100536.3;;;;-69
2023/07/15 16:14:53;;;;;;;;;;;;;;;23.26;54.90137;100528.6;;;;-70
2023/07/15 16:19:54;;;;;;;;;;;;;;;23.17;54.78809;100516.3;;;;-69
2023/07/15 16:24:04;;;;;;;0.4;0;;;;;;;;;;;;;-68
2023/07/15 16:24:53;;;;;;;;;;;;;;;23.11;54.30859;100519.8;;;;-69
2023/07/15 16:29:53;;;;;;;;;;;;;;;23.01;55.04395;100504.4;;;;-68
2023/07/15 16:34:53;;;;;;;;;;;;;;;22.95;55.45898;100510;;;;-70
2023/07/15 16:39:53;;;;;;;;;;;;;;;22.92;56.05176;100509.1;;;;-70
2023/07/15 16:44:53;;;;;;;;;;;;;;;22.88;56.46094;100496.1;;;;-69
2023/07/15 16:49:53;;;;;;;;;;;;;;;22.9;55.92285;100497.9;;;;-71
2023/07/15 16:54:08;;;;;;;0.2;0;;;;;;;;;;;;;-68
2023/07/15 16:54:53;;;;;;;;;;;;;;;22.91;56.45215;100505.3;;;;-69
2023/07/15 16:59:53;;;;;;;;;;;;;;;22.89;56.90918;100501;;;;-69
2023/07/15 17:04:53;;;;;;;;;;;;;;;22.79;56.89453;100506.3;;;;-68
2023/07/15 17:09:53;;;;;;;;;;;;;;;22.8;56.9541;100507.3;;;;-69
2023/07/15 17:14:53;;;;;;;;;;;;;;;22.74;56.38477;100511.8;;;;-69
2023/07/15 17:19:53;;;;;;;;;;;;;;;22.78;56.16113;100502.8;;;;-69
2023/07/15 17:24:12;;;;;;;0.2;0.1;;;;;;;;;;;;;-67
2023/07/15 17:24:56;;;;;;;;;;;;;;;22.79;55.97949;100508.1;;;;-69
2023/07/15 17:29:53;;;;;;;;;;;;;;;22.74;55.52539;100519.3;;;;-67
2023/07/15 17:34:53;;;;;;;;;;;;;;;22.61;55.70508;100535.5;;;;-68
2023/07/15 17:39:53;;;;;;;;;;;;;;;22.5;54.94629;100535.7;;;;-67
2023/07/15 17:44:53;;;;;;;;;;;;;;;22.35;53.94238;100544.7;;;;-68
2023/07/15 17:49:53;;;;;;;;;;;;;;;22.27;53.60059;100538;;;;-69
2023/07/15 17:54:15;;;;;;;0.2;0;;;;;;;;;;;;;-69
2023/07/15 17:54:53;;;;;;;;;;;;;;;22.25;53.04883;100535.5;;;;-70
2023/07/15 17:59:53;;;;;;;;;;;;;;;22.19;52.82422;100525.3;;;;-68
2023/07/15 18:04:55;;;;;;;;;;;;;;;22.1;52.80078;100526.2;;;;-70
2023/07/15 18:09:53;;;;;;;;;;;;;;;22.08;52.59277;100536.1;;;;-69
2023/07/15 18:14:53;;;;;;;;;;;;;;;21.97;52.83203;100541.2;;;;-68
2023/07/15 18:19:53;;;;;;;;;;;;;;;21.84;53.08008;100553.3;;;;-68
2023/07/15 18:24:19;;;;;;;0.2;0;;;;;;;;;;;;;-69
2023/07/15 18:24:53;;;;;;;;;;;;;;;21.76;53.19727;100548.9;;;;-68
2023/07/15 18:29:53;;;;;;;;;;;;;;;21.83;52.9082;100564.5;;;;-69
2023/07/15 18:34:57;;;;;;;;;;;;;;;21.8;53.17871;100556.5;;;;-68
2023/07/15 18:39:53;;;;;;;;;;;;;;;21.84;53.40039;100554.7;;;;-70
2023/07/15 18:44:53;;;;;;;;;;;;;;;21.78;54.29785;100553.3;;;;-70
2023/07/15 18:49:53;;;;;;;;;;;;;;;21.76;54.93652;100547.5;;;;-69
2023/07/15 18:54:23;;;;;;;0.2;0;;;;;;;;;;;;;-69
2023/07/15 18:54:53;;;;;;;;;;;;;;;21.74;54.80664;100555.5;;;;-69
2023/07/15 18:59:53;;;;;;;;;;;;;;;21.63;55.80957;100556.3;;;;-71
2023/07/15 19:04:53;;;;;;;;;;;;;;;21.51;56.99512;100561.4;;;;-69
2023/07/15 19:09:55;;;;;;;;;;;;;;;21.45;57.30859;100572.3;;;;-67
2023/07/15 19:14:53;;;;;;;;;;;;;;;21.38;56.44336;100583.9;;;;-68
2023/07/15 19:19:53;;;;;;;;;;;;;;;21.31;56.09082;100599.3;;;;-68
2023/07/15 19:24:26;;;;;;;0.2;0;;;;;;;;;;;;;-69
2023/07/15 19:24:53;;;;;;;;;;;;;;;21.17;55.26367;100606.5;;;;-68
2023/07/15 19:29:53;;;;;;;;;;;;;;;20.96;55.15625;100599.5;;;;-70
2023/07/15 19:34:53;;;;;;;;;;;;;;;20.96;54.58496;100598.1;;;;-68
2023/07/15 19:39:53;;;;;;;;;;;;;;;20.87;54.00488;100601.9;;;;-68
2023/07/15 19:44:53;;;;;;;;;;;;;;;20.73;53.19922;100605.8;;;;-69
2023/07/15 19:49:53;;;;;;;;;;;;;;;20.56;52.54102;100613.9;;;;-70
2023/07/15 19:54:30;;;;;;;0.2;0;;;;;;;;;;;;;-68
2023/07/15 19:54:53;;;;;;;;;;;;;;;20.42;51.80469;100621;;;;-68
2023/07/15 19:59:53;;;;;;;;;;;;;;;20.2;52.18945;100625.6;;;;-69
2023/07/15 20:04:53;;;;;;;;;;;;;;;20.08;51.95801;100629.8;;;;-73
2023/07/15 20:09:53;;;;;;;;;;;;;;;19.94;52.02246;100618.9;;;;-67
2023/07/15 20:14:53;;;;;;;;;;;;;;;19.81;51.7793;100631.7;;;;-68
2023/07/15 20:19:53;;;;;;;;;;;;;;;19.71;51.75586;100625.2;;;;-69
2023/07/15 20:24:33;;;;;;;0.2;0.1;;;;;;;;;;;;;-68
2023/07/15 20:24:53;;;;;;;;;;;;;;;19.62;52.11133;100626.1;;;;-69
2023/07/15 20:29:54;;;;;;;;;;;;;;;19.54;52.56836;100641.3;;;;-69
2023/07/15 20:34:53;;;;;;;;;;;;;;;19.45;52.64844;100650;;;;-70
2023/07/15 20:39:53;;;;;;;;;;;;;;;19.29;53.03906;100656.6;;;;-68
2023/07/15 20:44:53;;;;;;;;;;;;;;;19.29;53.3457;100650.6;;;;-68
2023/07/15 20:49:53;;;;;;;;;;;;;;;19.19;53.43555;100649.7;;;;-68
2023/07/15 20:54:36;;;;;;;0.2;0.1;;;;;;;;;;;;;-68
2023/07/15 20:54:53;;;;;;;;;;;;;;;19.14;53.39746;100651.2;;;;-68
2023/07/15 20:59:53;;;;;;;;;;;;;;;19.03;53.84961;100652.6;;;;-68
2023/07/15 21:04:53;;;;;;;;;;;;;;;18.95;54.13574;100663.8;;;;-68
2023/07/15 21:09:53;;;;;;;;;;;;;;;18.89;54.40137;100668.2;;;;-69
2023/07/15 21:14:53;;;;;;;;;;;;;;;18.82;54.83496;100670;;;;-69
2023/07/15 21:19:54;;;;;;;;;;;;;;;18.76;55.14648;100671;;;;-69
2023/07/15 21:24:38;;;;;;;0.2;0.1;;;;;;;;;;;;;-68
2023/07/15 21:24:53;;;;;;;;;;;;;;;18.73;55.2666;100669.2;;;;-70
2023/07/15 21:29:53;;;;;;;;;;;;;;;18.77;55.35352;100675.2;;;;-69
2023/07/15 21:34:53;;;;;;;;;;;;;;;18.69;55.08105;100673.8;;;;-70
2023/07/15 21:39:53;;;;;;;;;;;;;;;18.62;55.35547;100682;;;;-69
2023/07/15 21:44:54;;;;;;;;;;;;;;;18.52;55.35449;100680.9;;;;-69
2023/07/15 21:49:53;;;;;;;;;;;;;;;18.47;55.58789;100694.1;;;;-69
2023/07/15 21:54:41;;;;;;;0.3;0.1;;;;;;;;;;;;;-67
2023/07/15 21:54:53;;;;;;;;;;;;;;;18.41;55.99902;100692;;;;-67
2023/07/15 21:59:53;;;;;;;;;;;;;;;18.39;56.20117;100691.3;;;;-69
2023/07/15 22:04:53;;;;;;;;;;;;;;;18.36;56.29883;100698.4;;;;-68
2023/07/15 22:09:53;;;;;;;;;;;;;;;18.26;57.06836;100701.7;;;;-68
2023/07/15 22:14:53;;;;;;;;;;;;;;;18.27;57.02441;100701.9;;;;-68
2023/07/15 22:19:53;;;;;;;;;;;;;;;18.19;56.89063;100708.2;;;;-68
2023/07/15 22:24:43;;;;;;;0.2;0.1;;;;;;;;;;;;;-68
2023/07/15 22:24:55;;;;;;;;;;;;;;;18.22;57.67578;100703.3;;;;-70
2023/07/15 22:29:55;;;;;;;;;;;;;;;18.17;57.73633;100710.3;;;;-69
2023/07/15 22:34:53;;;;;;;;;;;;;;;18.13;59.3418;100713;;;;-68
2023/07/15 22:39:55;;;;;;;;;;;;;;;18.15;58.63086;100707;;;;-69
2023/07/15 22:44:53;;;;;;;;;;;;;;;18.06;59.00293;100714.4;;;;-68
2023/07/15 22:49:53;;;;;;;;;;;;;;;18.08;59.07422;100719.5;;;;-69
2023/07/15 22:54:46;;;;;;;0.2;0;;;;;;;;;;;;;-71
2023/07/15 22:54:57;;;;;;;;;;;;;;;18.06;59.47852;100711.7;;;;-71
2023/07/15 22:59:53;;;;;;;;;;;;;;;17.96;59.86133;100719.1;;;;-69
2023/07/15 23:04:53;;;;;;;;;;;;;;;17.93;60.48145;100711.1;;;;-69
2023/07/15 23:09:53;;;;;;;;;;;;;;;17.86;60.50586;100716.6;;;;-68
2023/07/15 23:14:53;;;;;;;;;;;;;;;17.86;61.05859;100729.9;;;;-67
2023/07/15 23:19:53;;;;;;;;;;;;;;;17.8;61.0752;100736;;;;-69
2023/07/15 23:24:51;;;;;;;0.2;0;;;;;;;;;;;;;-71
2023/07/15 23:25:00;;;;;;;;;;;;;;;17.78;61.34277;100730.9;;;;-70
2023/07/15 23:29:53;;;;;;;;;;;;;;;17.8;61.2793;100736.2;;;;-69
2023/07/15 23:34:53;;;;;;;;;;;;;;;17.82;61.21191;100738.4;;;;-70
2023/07/15 23:39:55;;;;;;;;;;;;;;;17.75;61.59766;100739.9;;;;-68
2023/07/15 23:44:53;;;;;;;;;;;;;;;17.77;61.33008;100742.8;;;;-69
2023/07/15 23:49:53;;;;;;;;;;;;;;;17.76;61.28223;100744.2;;;;-67
2023/07/15 23:54:51;;;;;;;0.3;0.2;;;;;;;;;;;;;-69
2023/07/15 23:55:00;;;;;;;;;;;;;;;17.69;61.12695;100738.6;;;;-69
2023/07/15 23:59:53;;;;;;;;;;;;;;;17.64;61.44824;100740.4;;;;-68
